• pl
  • eng

Awiacja
TAF FC 04:30 20.08.2018
  • WIND
  • SIGNIFICANT EURO
  • SIGNIFICANT
  • SIGMET
  • AIRMET
  • TAF FC
  • TAF FT
  • METAR GG30
  • METAR GG00


TAF EPLB 192330Z 2000/2009 VRB03KT CAVOK=

TAF EPLB 200230Z 2003/2012 VRB03KT CAVOK
BECMG 2008/2010 23010KT=

TAF EPZG 192330Z 2000/2009 VRB02KT CAVOK=

TAF EPZG 200230Z 2003/2012 VRB02KT CAVOK
BECMG 2007/2010 29010KT
TEMPO 2010/2012 30016G26KT=
Awiacja.imgw.pl jest pogodowym serwisem informacyjnym
Instytutu Meteorologii i Gospodarki Wodnej Państwowego Instytutu Badawczego.
Copyright IMGW PIB 2009-2011© Wszelkie prawa zastrzeżone.